sensor_id;sensor_type;location;lat;lon;timestamp;P1;durP1;ratioP1;P2;durP2;ratioP2
15114;SDS011;7658;51.456;7.622;2024-02-16T00:02:17;5.18;;;3.40;;
15114;SDS011;7658;51.456;7.622;2024-02-16T00:04:43;4.72;;;3.40;;
15114;SDS011;7658;51.456;7.622;2024-02-16T00:07:09;4.22;;;3.25;;
15114;SDS011;7658;51.456;7.622;2024-02-16T00:09:35;5.75;;;3.20;;
15114;SDS011;7658;51.456;7.622;2024-02-16T00:12:01;3.60;;;3.10;;
15114;SDS011;7658;51.456;7.622;2024-02-16T00:14:27;4.03;;;3.20;;
15114;SDS011;7658;51.456;7.622;2024-02-16T00:16:53;4.40;;;3.20;;
15114;SDS011;7658;51.456;7.622;2024-02-16T00:19:18;4.10;;;3.20;;
15114;SDS011;7658;51.456;7.622;2024-02-16T00:21:44;3.45;;;3.15;;
15114;SDS011;7658;51.456;7.622;2024-02-16T00:24:10;4.38;;;3.10;;
15114;SDS011;7658;51.456;7.622;2024-02-16T00:26:36;4.70;;;3.22;;
15114;SDS011;7658;51.456;7.622;2024-02-16T00:29:04;3.42;;;3.10;;
15114;SDS011;7658;51.456;7.622;2024-02-16T00:31:30;5.50;;;3.38;;
15114;SDS011;7658;51.456;7.622;2024-02-16T00:33:56;3.90;;;3.22;;
15114;SDS011;7658;51.456;7.622;2024-02-16T00:36:22;4.18;;;3.47;;
15114;SDS011;7658;51.456;7.622;2024-02-16T00:38:49;3.58;;;3.05;;
15114;SDS011;7658;51.456;7.622;2024-02-16T00:41:21;3.30;;;3.10;;
15114;SDS011;7658;51.456;7.622;2024-02-16T00:43:48;3.67;;;3.30;;
15114;SDS011;7658;51.456;7.622;2024-02-16T00:46:15;3.35;;;3.05;;
15114;SDS011;7658;51.456;7.622;2024-02-16T00:48:41;7.05;;;2.90;;
15114;SDS011;7658;51.456;7.622;2024-02-16T00:51:07;4.05;;;3.20;;
15114;SDS011;7658;51.456;7.622;2024-02-16T00:53:33;3.38;;;3.08;;
15114;SDS011;7658;51.456;7.622;2024-02-16T00:55:58;3.90;;;3.15;;
15114;SDS011;7658;51.456;7.622;2024-02-16T00:58:24;4.85;;;3.08;;
15114;SDS011;7658;51.456;7.622;2024-02-16T01:00:50;3.35;;;3.05;;
15114;SDS011;7658;51.456;7.622;2024-02-16T01:03:16;4.82;;;3.28;;
15114;SDS011;7658;51.456;7.622;2024-02-16T01:05:41;5.82;;;3.33;;
15114;SDS011;7658;51.456;7.622;2024-02-16T01:08:07;4.68;;;3.15;;
15114;SDS011;7658;51.456;7.622;2024-02-16T01:10:33;4.10;;;3.35;;
15114;SDS011;7658;51.456;7.622;2024-02-16T01:12:59;3.83;;;3.42;;
15114;SDS011;7658;51.456;7.622;2024-02-16T01:15:24;3.88;;;3.58;;
15114;SDS011;7658;51.456;7.622;2024-02-16T01:17:50;3.50;;;3.20;;
15114;SDS011;7658;51.456;7.622;2024-02-16T01:20:16;3.50;;;3.15;;
15114;SDS011;7658;51.456;7.622;2024-02-16T01:22:42;3.55;;;3.20;;
15114;SDS011;7658;51.456;7.622;2024-02-16T01:25:08;5.90;;;3.67;;
15114;SDS011;7658;51.456;7.622;2024-02-16T01:27:34;3.53;;;3.15;;
15114;SDS011;7658;51.456;7.622;2024-02-16T01:30:01;4.38;;;3.28;;
15114;SDS011;7658;51.456;7.622;2024-02-16T01:32:28;3.33;;;3.10;;
15114;SDS011;7658;51.456;7.622;2024-02-16T01:34:54;7.05;;;3.40;;
15114;SDS011;7658;51.456;7.622;2024-02-16T01:37:19;5.00;;;3.35;;
15114;SDS011;7658;51.456;7.622;2024-02-16T01:39:45;4.63;;;3.40;;
15114;SDS011;7658;51.456;7.622;2024-02-16T01:42:11;3.72;;;3.40;;
15114;SDS011;7658;51.456;7.622;2024-02-16T01:44:37;4.45;;;3.35;;
15114;SDS011;7658;51.456;7.622;2024-02-16T01:47:03;5.43;;;3.13;;
15114;SDS011;7658;51.456;7.622;2024-02-16T01:49:29;5.72;;;3.40;;
15114;SDS011;7658;51.456;7.622;2024-02-16T01:51:56;3.53;;;3.20;;
15114;SDS011;7658;51.456;7.622;2024-02-16T01:54:22;6.45;;;3.47;;
15114;SDS011;7658;51.456;7.622;2024-02-16T01:56:48;3.38;;;3.08;;
15114;SDS011;7658;51.456;7.622;2024-02-16T01:59:16;4.07;;;3.40;;
15114;SDS011;7658;51.456;7.622;2024-02-16T02:01:42;4.43;;;3.38;;
15114;SDS011;7658;51.456;7.622;2024-02-16T02:04:08;4.63;;;3.42;;
15114;SDS011;7658;51.456;7.622;2024-02-16T02:06:33;3.65;;;3.30;;
15114;SDS011;7658;51.456;7.622;2024-02-16T02:09:00;3.63;;;3.33;;
15114;SDS011;7658;51.456;7.622;2024-02-16T02:11:26;3.25;;;2.92;;
15114;SDS011;7658;51.456;7.622;2024-02-16T02:13:52;4.93;;;3.40;;
15114;SDS011;7658;51.456;7.622;2024-02-16T02:16:18;4.45;;;3.50;;
15114;SDS011;7658;51.456;7.622;2024-02-16T02:18:46;3.45;;;3.15;;
15114;SDS011;7658;51.456;7.622;2024-02-16T02:21:11;4.68;;;3.50;;
15114;SDS011;7658;51.456;7.622;2024-02-16T02:23:39;6.25;;;3.47;;
15114;SDS011;7658;51.456;7.622;2024-02-16T02:26:05;5.95;;;3.15;;
15114;SDS011;7658;51.456;7.622;2024-02-16T02:28:32;3.85;;;3.17;;
15114;SDS011;7658;51.456;7.622;2024-02-16T02:30:59;3.45;;;3.10;;
15114;SDS011;7658;51.456;7.622;2024-02-16T02:33:25;3.42;;;3.13;;
15114;SDS011;7658;51.456;7.622;2024-02-16T02:35:51;3.45;;;3.15;;
15114;SDS011;7658;51.456;7.622;2024-02-16T02:38:17;4.65;;;3.20;;
15114;SDS011;7658;51.456;7.622;2024-02-16T02:40:42;5.68;;;3.70;;
15114;SDS011;7658;51.456;7.622;2024-02-16T02:43:08;4.93;;;3.33;;
15114;SDS011;7658;51.456;7.622;2024-02-16T02:45:34;4.40;;;3.25;;
15114;SDS011;7658;51.456;7.622;2024-02-16T02:48:00;6.32;;;3.40;;
15114;SDS011;7658;51.456;7.622;2024-02-16T02:50:25;4.13;;;3.40;;
15114;SDS011;7658;51.456;7.622;2024-02-16T02:52:52;3.50;;;3.20;;
15114;SDS011;7658;51.456;7.622;2024-02-16T02:55:17;4.03;;;3.17;;
15114;SDS011;7658;51.456;7.622;2024-02-16T02:57:44;3.88;;;3.47;;
15114;SDS011;7658;51.456;7.622;2024-02-16T03:00:10;4.57;;;3.33;;
15114;SDS011;7658;51.456;7.622;2024-02-16T03:02:39;5.07;;;3.55;;
15114;SDS011;7658;51.456;7.622;2024-02-16T03:05:06;3.78;;;3.50;;
15114;SDS011;7658;51.456;7.622;2024-02-16T03:07:32;3.30;;;3.10;;
15114;SDS011;7658;51.456;7.622;2024-02-16T03:09:59;3.30;;;3.00;;
15114;SDS011;7658;51.456;7.622;2024-02-16T03:12:25;4.55;;;3.20;;
15114;SDS011;7658;51.456;7.622;2024-02-16T03:14:51;4.05;;;3.40;;
15114;SDS011;7658;51.456;7.622;2024-02-16T03:17:17;5.28;;;3.28;;
15114;SDS011;7658;51.456;7.622;2024-02-16T03:19:42;3.78;;;3.30;;
15114;SDS011;7658;51.456;7.622;2024-02-16T03:22:08;4.03;;;3.30;;
15114;SDS011;7658;51.456;7.622;2024-02-16T03:24:34;5.18;;;3.58;;
15114;SDS011;7658;51.456;7.622;2024-02-16T03:27:00;4.28;;;3.50;;
15114;SDS011;7658;51.456;7.622;2024-02-16T03:29:26;4.70;;;3.40;;
15114;SDS011;7658;51.456;7.622;2024-02-16T03:31:52;3.92;;;3.35;;
15114;SDS011;7658;51.456;7.622;2024-02-16T03:34:18;3.85;;;3.53;;
15114;SDS011;7658;51.456;7.622;2024-02-16T03:36:43;5.18;;;3.20;;
15114;SDS011;7658;51.456;7.622;2024-02-16T03:39:09;3.50;;;3.20;;
15114;SDS011;7658;51.456;7.622;2024-02-16T03:41:35;3.70;;;3.40;;
15114;SDS011;7658;51.456;7.622;2024-02-16T03:44:01;7.07;;;3.45;;
15114;SDS011;7658;51.456;7.622;2024-02-16T03:46:26;7.20;;;3.40;;
15114;SDS011;7658;51.456;7.622;2024-02-16T03:48:52;3.72;;;3.30;;
15114;SDS011;7658;51.456;7.622;2024-02-16T03:51:18;5.00;;;3.50;;
15114;SDS011;7658;51.456;7.622;2024-02-16T03:53:44;3.92;;;3.22;;
15114;SDS011;7658;51.456;7.622;2024-02-16T03:56:11;3.72;;;3.38;;
15114;SDS011;7658;51.456;7.622;2024-02-16T03:58:37;3.90;;;3.50;;
15114;SDS011;7658;51.456;7.622;2024-02-16T04:01:03;3.65;;;3.35;;
15114;SDS011;7658;51.456;7.622;2024-02-16T04:03:31;3.83;;;3.20;;
15114;SDS011;7658;51.456;7.622;2024-02-16T04:05:57;3.50;;;3.17;;
15114;SDS011;7658;51.456;7.622;2024-02-16T04:08:24;5.90;;;3.78;;
15114;SDS011;7658;51.456;7.622;2024-02-16T04:10:50;4.43;;;3.38;;
15114;SDS011;7658;51.456;7.622;2024-02-16T04:13:16;3.80;;;3.38;;
15114;SDS011;7658;51.456;7.622;2024-02-16T04:15:42;3.55;;;3.25;;
15114;SDS011;7658;51.456;7.622;2024-02-16T04:18:07;4.28;;;3.22;;
15114;SDS011;7658;51.456;7.622;2024-02-16T04:20:34;7.13;;;3.17;;
15114;SDS011;7658;51.456;7.622;2024-02-16T04:23:00;4.95;;;3.30;;
15114;SDS011;7658;51.456;7.622;2024-02-16T04:25:26;3.97;;;3.33;;
15114;SDS011;7658;51.456;7.622;2024-02-16T04:27:52;5.20;;;3.53;;
15114;SDS011;7658;51.456;7.622;2024-02-16T04:30:18;6.00;;;3.30;;
15114;SDS011;7658;51.456;7.622;2024-02-16T04:32:44;5.35;;;3.60;;
15114;SDS011;7658;51.456;7.622;2024-02-16T04:35:09;3.60;;;3.30;;
15114;SDS011;7658;51.456;7.622;2024-02-16T04:37:37;4.45;;;3.25;;
15114;SDS011;7658;51.456;7.622;2024-02-16T04:40:04;5.32;;;3.88;;
15114;SDS011;7658;51.456;7.622;2024-02-16T04:42:31;4.75;;;3.47;;
15114;SDS011;7658;51.456;7.622;2024-02-16T04:44:57;8.55;;;3.60;;
15114;SDS011;7658;51.456;7.622;2024-02-16T04:47:24;4.10;;;3.30;;
15114;SDS011;7658;51.456;7.622;2024-02-16T04:49:50;5.28;;;3.63;;
15114;SDS011;7658;51.456;7.622;2024-02-16T04:52:16;4.65;;;3.40;;
15114;SDS011;7658;51.456;7.622;2024-02-16T04:54:42;4.38;;;3.50;;
15114;SDS011;7658;51.456;7.622;2024-02-16T04:57:08;4.05;;;3.33;;
15114;SDS011;7658;51.456;7.622;2024-02-16T04:59:33;3.65;;;3.35;;
15114;SDS011;7658;51.456;7.622;2024-02-16T05:01:59;4.97;;;3.50;;
15114;SDS011;7658;51.456;7.622;2024-02-16T05:04:25;4.47;;;3.80;;
15114;SDS011;7658;51.456;7.622;2024-02-16T05:06:51;4.93;;;3.60;;
15114;SDS011;7658;51.456;7.622;2024-02-16T05:09:17;5.72;;;3.50;;
15114;SDS011;7658;51.456;7.622;2024-02-16T05:11:44;5.03;;;3.72;;
15114;SDS011;7658;51.456;7.622;2024-02-16T05:14:10;6.25;;;3.47;;
15114;SDS011;7658;51.456;7.622;2024-02-16T05:16:45;5.22;;;3.70;;
15114;SDS011;7658;51.456;7.622;2024-02-16T05:19:11;4.60;;;3.38;;
15114;SDS011;7658;51.456;7.622;2024-02-16T05:21:37;3.80;;;3.38;;
15114;SDS011;7658;51.456;7.622;2024-02-16T05:24:03;4.78;;;3.40;;
15114;SDS011;7658;51.456;7.622;2024-02-16T05:26:29;5.35;;;3.35;;
15114;SDS011;7658;51.456;7.622;2024-02-16T05:28:55;4.50;;;3.30;;
15114;SDS011;7658;51.456;7.622;2024-02-16T05:31:20;6.05;;;3.25;;
15114;SDS011;7658;51.456;7.622;2024-02-16T05:33:49;5.38;;;3.65;;
15114;SDS011;7658;51.456;7.622;2024-02-16T05:36:19;5.88;;;3.55;;
15114;SDS011;7658;51.456;7.622;2024-02-16T05:38:46;4.10;;;3.63;;
15114;SDS011;7658;51.456;7.622;2024-02-16T05:41:12;5.28;;;3.28;;
15114;SDS011;7658;51.456;7.622;2024-02-16T05:43:38;5.88;;;4.10;;
15114;SDS011;7658;51.456;7.622;2024-02-16T05:46:04;5.32;;;3.15;;
15114;SDS011;7658;51.456;7.622;2024-02-16T05:48:33;3.60;;;3.28;;
15114;SDS011;7658;51.456;7.622;2024-02-16T05:51:03;4.40;;;3.30;;
15114;SDS011;7658;51.456;7.622;2024-02-16T05:53:30;5.80;;;3.50;;
15114;SDS011;7658;51.456;7.622;2024-02-16T05:55:56;5.78;;;3.35;;
15114;SDS011;7658;51.456;7.622;2024-02-16T05:58:23;6.47;;;3.72;;
15114;SDS011;7658;51.456;7.622;2024-02-16T06:00:49;5.95;;;3.53;;
15114;SDS011;7658;51.456;7.622;2024-02-16T06:03:15;4.30;;;3.33;;
15114;SDS011;7658;51.456;7.622;2024-02-16T06:05:41;4.35;;;3.70;;
15114;SDS011;7658;51.456;7.622;2024-02-16T06:08:12;4.85;;;3.35;;
15114;SDS011;7658;51.456;7.622;2024-02-16T06:10:39;4.28;;;3.40;;
15114;SDS011;7658;51.456;7.622;2024-02-16T06:13:06;4.72;;;3.70;;
15114;SDS011;7658;51.456;7.622;2024-02-16T06:15:33;6.88;;;3.70;;
15114;SDS011;7658;51.456;7.622;2024-02-16T06:17:59;5.75;;;3.58;;
15114;SDS011;7658;51.456;7.622;2024-02-16T06:20:26;4.60;;;3.40;;
15114;SDS011;7658;51.456;7.622;2024-02-16T06:22:52;4.53;;;3.78;;
15114;SDS011;7658;51.456;7.622;2024-02-16T06:25:17;5.72;;;3.70;;
15114;SDS011;7658;51.456;7.622;2024-02-16T06:27:44;3.65;;;3.25;;
15114;SDS011;7658;51.456;7.622;2024-02-16T06:30:11;4.95;;;3.28;;
15114;SDS011;7658;51.456;7.622;2024-02-16T06:32:38;5.53;;;3.63;;
15114;SDS011;7658;51.456;7.622;2024-02-16T06:35:06;5.25;;;3.97;;
15114;SDS011;7658;51.456;7.622;2024-02-16T06:37:36;5.57;;;3.80;;
15114;SDS011;7658;51.456;7.622;2024-02-16T06:40:05;3.75;;;3.45;;
15114;SDS011;7658;51.456;7.622;2024-02-16T06:42:34;7.53;;;4.07;;
15114;SDS011;7658;51.456;7.622;2024-02-16T06:45:00;5.38;;;3.92;;
15114;SDS011;7658;51.456;7.622;2024-02-16T06:47:26;4.03;;;3.40;;
15114;SDS011;7658;51.456;7.622;2024-02-16T06:49:52;4.55;;;3.33;;
15114;SDS011;7658;51.456;7.622;2024-02-16T06:52:17;5.07;;;3.33;;
15114;SDS011;7658;51.456;7.622;2024-02-16T06:54:43;4.93;;;3.65;;
15114;SDS011;7658;51.456;7.622;2024-02-16T06:57:09;8.00;;;3.72;;
15114;SDS011;7658;51.456;7.622;2024-02-16T06:59:35;5.28;;;3.60;;
15114;SDS011;7658;51.456;7.622;2024-02-16T07:02:01;5.28;;;3.60;;
15114;SDS011;7658;51.456;7.622;2024-02-16T07:04:26;5.32;;;3.90;;
15114;SDS011;7658;51.456;7.622;2024-02-16T07:06:53;4.03;;;3.63;;
15114;SDS011;7658;51.456;7.622;2024-02-16T07:09:19;6.05;;;3.85;;
15114;SDS011;7658;51.456;7.622;2024-02-16T07:11:47;6.22;;;3.90;;
15114;SDS011;7658;51.456;7.622;2024-02-16T07:14:15;5.57;;;4.30;;
15114;SDS011;7658;51.456;7.622;2024-02-16T07:16:41;5.82;;;4.07;;
15114;SDS011;7658;51.456;7.622;2024-02-16T07:19:07;6.32;;;3.83;;
15114;SDS011;7658;51.456;7.622;2024-02-16T07:21:32;7.15;;;3.60;;
15114;SDS011;7658;51.456;7.622;2024-02-16T07:23:58;4.97;;;3.70;;
15114;SDS011;7658;51.456;7.622;2024-02-16T07:26:24;5.88;;;3.45;;
15114;SDS011;7658;51.456;7.622;2024-02-16T07:28:50;4.68;;;3.58;;
15114;SDS011;7658;51.456;7.622;2024-02-16T07:31:16;5.45;;;3.53;;
15114;SDS011;7658;51.456;7.622;2024-02-16T07:33:42;7.45;;;3.70;;
15114;SDS011;7658;51.456;7.622;2024-02-16T07:36:07;5.47;;;3.60;;
15114;SDS011;7658;51.456;7.622;2024-02-16T07:38:34;7.75;;;4.03;;
15114;SDS011;7658;51.456;7.622;2024-02-16T07:41:00;5.25;;;3.70;;
15114;SDS011;7658;51.456;7.622;2024-02-16T07:43:27;6.78;;;3.50;;
15114;SDS011;7658;51.456;7.622;2024-02-16T07:45:53;8.35;;;3.88;;
15114;SDS011;7658;51.456;7.622;2024-02-16T07:48:19;3.88;;;3.55;;
15114;SDS011;7658;51.456;7.622;2024-02-16T07:50:46;4.20;;;3.80;;
15114;SDS011;7658;51.456;7.622;2024-02-16T07:53:12;6.30;;;4.00;;
15114;SDS011;7658;51.456;7.622;2024-02-16T07:55:39;6.40;;;4.00;;
15114;SDS011;7658;51.456;7.622;2024-02-16T07:58:04;7.50;;;4.63;;
15114;SDS011;7658;51.456;7.622;2024-02-16T08:00:30;4.93;;;3.70;;
15114;SDS011;7658;51.456;7.622;2024-02-16T08:02:56;4.82;;;3.97;;
15114;SDS011;7658;51.456;7.622;2024-02-16T08:05:22;7.47;;;4.38;;
15114;SDS011;7658;51.456;7.622;2024-02-16T08:07:49;7.88;;;3.95;;
15114;SDS011;7658;51.456;7.622;2024-02-16T08:10:18;7.05;;;4.35;;
15114;SDS011;7658;51.456;7.622;2024-02-16T08:12:47;5.90;;;4.53;;
15114;SDS011;7658;51.456;7.622;2024-02-16T08:15:13;5.55;;;4.07;;
15114;SDS011;7658;51.456;7.622;2024-02-16T08:17:39;4.78;;;4.15;;
15114;SDS011;7658;51.456;7.622;2024-02-16T08:20:05;4.72;;;3.90;;
15114;SDS011;7658;51.456;7.622;2024-02-16T08:22:31;4.32;;;3.90;;
15114;SDS011;7658;51.456;7.622;2024-02-16T08:24:58;6.93;;;4.20;;
15114;SDS011;7658;51.456;7.622;2024-02-16T08:27:24;7.43;;;4.10;;
15114;SDS011;7658;51.456;7.622;2024-02-16T08:29:50;6.63;;;4.00;;
15114;SDS011;7658;51.456;7.622;2024-02-16T08:32:18;5.53;;;3.90;;
15114;SDS011;7658;51.456;7.622;2024-02-16T08:34:46;5.93;;;4.13;;
15114;SDS011;7658;51.456;7.622;2024-02-16T08:37:13;12.00;;;4.90;;
15114;SDS011;7658;51.456;7.622;2024-02-16T08:39:40;10.40;;;3.90;;
15114;SDS011;7658;51.456;7.622;2024-02-16T08:42:06;4.30;;;3.90;;
15114;SDS011;7658;51.456;7.622;2024-02-16T08:44:36;8.57;;;3.97;;
15114;SDS011;7658;51.456;7.622;2024-02-16T08:47:04;6.13;;;3.90;;
15114;SDS011;7658;51.456;7.622;2024-02-16T08:49:30;4.25;;;3.85;;
15114;SDS011;7658;51.456;7.622;2024-02-16T08:51:56;7.97;;;3.80;;
15114;SDS011;7658;51.456;7.622;2024-02-16T08:54:21;5.60;;;3.95;;
15114;SDS011;7658;51.456;7.622;2024-02-16T08:56:47;6.80;;;4.07;;
15114;SDS011;7658;51.456;7.622;2024-02-16T08:59:13;5.68;;;3.95;;
15114;SDS011;7658;51.456;7.622;2024-02-16T09:01:39;5.10;;;4.30;;
15114;SDS011;7658;51.456;7.622;2024-02-16T09:04:06;4.18;;;3.63;;
15114;SDS011;7658;51.456;7.622;2024-02-16T09:06:32;6.13;;;3.92;;
15114;SDS011;7658;51.456;7.622;2024-02-16T09:08:59;8.98;;;4.07;;
15114;SDS011;7658;51.456;7.622;2024-02-16T09:11:26;5.60;;;3.85;;
15114;SDS011;7658;51.456;7.622;2024-02-16T09:13:53;8.18;;;3.95;;
15114;SDS011;7658;51.456;7.622;2024-02-16T09:16:19;6.72;;;3.80;;
15114;SDS011;7658;51.456;7.622;2024-02-16T09:18:45;7.07;;;4.20;;
15114;SDS011;7658;51.456;7.622;2024-02-16T09:21:13;4.78;;;3.75;;
15114;SDS011;7658;51.456;7.622;2024-02-16T09:23:39;5.63;;;3.53;;
15114;SDS011;7658;51.456;7.622;2024-02-16T09:26:05;7.05;;;3.97;;
15114;SDS011;7658;51.456;7.622;2024-02-16T09:28:38;9.23;;;3.80;;
15114;SDS011;7658;51.456;7.622;2024-02-16T09:31:07;8.18;;;4.30;;
15114;SDS011;7658;51.456;7.622;2024-02-16T09:33:34;7.25;;;4.22;;
15114;SDS011;7658;51.456;7.622;2024-02-16T09:36:02;6.32;;;3.78;;
15114;SDS011;7658;51.456;7.622;2024-02-16T09:38:30;6.55;;;3.67;;
15114;SDS011;7658;51.456;7.622;2024-02-16T09:40:56;5.43;;;3.53;;
15114;SDS011;7658;51.456;7.622;2024-02-16T09:43:24;4.43;;;3.72;;
15114;SDS011;7658;51.456;7.622;2024-02-16T09:45:57;5.88;;;4.00;;
15114;SDS011;7658;51.456;7.622;2024-02-16T09:48:28;6.63;;;3.97;;
15114;SDS011;7658;51.456;7.622;2024-02-16T09:50:55;6.95;;;4.15;;
15114;SDS011;7658;51.456;7.622;2024-02-16T09:53:23;6.57;;;4.18;;
15114;SDS011;7658;51.456;7.622;2024-02-16T09:55:51;6.75;;;4.05;;
15114;SDS011;7658;51.456;7.622;2024-02-16T09:58:17;6.15;;;3.65;;
15114;SDS011;7658;51.456;7.622;2024-02-16T10:00:47;6.70;;;4.13;;
15114;SDS011;7658;51.456;7.622;2024-02-16T10:03:27;6.82;;;4.60;;
15114;SDS011;7658;51.456;7.622;2024-02-16T10:06:11;5.90;;;3.80;;
15114;SDS011;7658;51.456;7.622;2024-02-16T10:08:51;5.75;;;3.90;;
15114;SDS011;7658;51.456;7.622;2024-02-16T10:11:21;8.65;;;4.70;;
15114;SDS011;7658;51.456;7.622;2024-02-16T10:13:56;5.90;;;4.03;;
15114;SDS011;7658;51.456;7.622;2024-02-16T10:16:23;5.85;;;4.22;;
15114;SDS011;7658;51.456;7.622;2024-02-16T10:18:49;4.75;;;3.83;;
15114;SDS011;7658;51.456;7.622;2024-02-16T10:21:25;7.45;;;4.30;;
15114;SDS011;7658;51.456;7.622;2024-02-16T10:26:35;8.60;;;4.15;;
15114;SDS011;7658;51.456;7.622;2024-02-16T10:29:03;8.55;;;4.38;;
15114;SDS011;7658;51.456;7.622;2024-02-16T10:31:30;5.70;;;3.83;;
15114;SDS011;7658;51.456;7.622;2024-02-16T10:33:58;8.20;;;4.13;;
15114;SDS011;7658;51.456;7.622;2024-02-16T10:36:34;6.32;;;3.90;;
15114;SDS011;7658;51.456;7.622;2024-02-16T10:39:01;6.03;;;4.03;;
15114;SDS011;7658;51.456;7.622;2024-02-16T10:41:34;5.40;;;3.97;;
15114;SDS011;7658;51.456;7.622;2024-02-16T10:44:01;8.00;;;4.63;;
15114;SDS011;7658;51.456;7.622;2024-02-16T10:46:29;7.10;;;4.28;;
15114;SDS011;7658;51.456;7.622;2024-02-16T10:48:55;8.27;;;3.83;;
15114;SDS011;7658;51.456;7.622;2024-02-16T10:51:44;7.25;;;3.88;;
15114;SDS011;7658;51.456;7.622;2024-02-16T10:54:10;7.20;;;4.30;;
15114;SDS011;7658;51.456;7.622;2024-02-16T10:56:40;7.97;;;4.20;;
15114;SDS011;7658;51.456;7.622;2024-02-16T10:59:06;9.95;;;4.35;;
15114;SDS011;7658;51.456;7.622;2024-02-16T11:01:38;8.30;;;4.22;;
15114;SDS011;7658;51.456;7.622;2024-02-16T11:04:05;5.78;;;4.47;;
15114;SDS011;7658;51.456;7.622;2024-02-16T11:06:54;12.30;;;4.53;;
15114;SDS011;7658;51.456;7.622;2024-02-16T11:12:05;8.63;;;4.68;;
15114;SDS011;7658;51.456;7.622;2024-02-16T11:14:34;6.93;;;4.25;;
15114;SDS011;7658;51.456;7.622;2024-02-16T11:17:07;8.40;;;4.25;;
15114;SDS011;7658;51.456;7.622;2024-02-16T11:19:40;11.93;;;4.53;;
15114;SDS011;7658;51.456;7.622;2024-02-16T11:22:08;8.23;;;4.30;;
15114;SDS011;7658;51.456;7.622;2024-02-16T11:24:35;4.70;;;4.05;;
15114;SDS011;7658;51.456;7.622;2024-02-16T11:27:03;8.55;;;3.72;;
15114;SDS011;7658;51.456;7.622;2024-02-16T11:29:34;11.13;;;4.30;;
15114;SDS011;7658;51.456;7.622;2024-02-16T11:32:02;5.20;;;3.97;;
15114;SDS011;7658;51.456;7.622;2024-02-16T11:34:28;9.20;;;4.22;;
15114;SDS011;7658;51.456;7.622;2024-02-16T11:36:55;8.75;;;4.22;;
15114;SDS011;7658;51.456;7.622;2024-02-16T11:39:22;10.57;;;4.72;;
15114;SDS011;7658;51.456;7.622;2024-02-16T11:41:58;11.95;;;4.50;;
15114;SDS011;7658;51.456;7.622;2024-02-16T11:44:28;5.75;;;4.30;;
15114;SDS011;7658;51.456;7.622;2024-02-16T11:46:58;7.18;;;4.57;;
15114;SDS011;7658;51.456;7.622;2024-02-16T11:49:25;11.98;;;4.88;;
15114;SDS011;7658;51.456;7.622;2024-02-16T11:51:51;5.85;;;3.92;;
15114;SDS011;7658;51.456;7.622;2024-02-16T11:54:17;6.40;;;5.00;;
15114;SDS011;7658;51.456;7.622;2024-02-16T11:56:46;8.30;;;4.57;;
15114;SDS011;7658;51.456;7.622;2024-02-16T11:59:16;8.70;;;4.82;;
15114;SDS011;7658;51.456;7.622;2024-02-16T12:01:52;8.85;;;5.05;;
15114;SDS011;7658;51.456;7.622;2024-02-16T12:04:22;10.45;;;4.60;;
15114;SDS011;7658;51.456;7.622;2024-02-16T12:06:53;8.70;;;4.55;;
15114;SDS011;7658;51.456;7.622;2024-02-16T12:09:21;6.88;;;4.00;;
15114;SDS011;7658;51.456;7.622;2024-02-16T12:11:48;10.63;;;4.40;;
15114;SDS011;7658;51.456;7.622;2024-02-16T12:14:15;6.40;;;4.65;;
15114;SDS011;7658;51.456;7.622;2024-02-16T12:16:42;8.20;;;4.90;;
15114;SDS011;7658;51.456;7.622;2024-02-16T12:19:12;8.40;;;5.05;;
15114;SDS011;7658;51.456;7.622;2024-02-16T12:21:38;11.23;;;5.40;;
15114;SDS011;7658;51.456;7.622;2024-02-16T12:24:04;8.02;;;5.35;;
15114;SDS011;7658;51.456;7.622;2024-02-16T12:26:30;7.63;;;4.80;;
15114;SDS011;7658;51.456;7.622;2024-02-16T12:28:56;10.13;;;5.22;;
15114;SDS011;7658;51.456;7.622;2024-02-16T12:31:22;8.68;;;4.68;;
15114;SDS011;7658;51.456;7.622;2024-02-16T12:33:48;8.70;;;5.60;;
15114;SDS011;7658;51.456;7.622;2024-02-16T12:36:14;9.77;;;5.05;;
15114;SDS011;7658;51.456;7.622;2024-02-16T12:38:42;9.85;;;5.13;;
15114;SDS011;7658;51.456;7.622;2024-02-16T12:41:08;8.13;;;4.93;;
15114;SDS011;7658;51.456;7.622;2024-02-16T12:43:34;12.25;;;4.70;;
15114;SDS011;7658;51.456;7.622;2024-02-16T12:45:59;9.02;;;4.47;;
15114;SDS011;7658;51.456;7.622;2024-02-16T12:48:27;9.90;;;5.10;;
15114;SDS011;7658;51.456;7.622;2024-02-16T12:50:53;8.13;;;4.90;;
15114;SDS011;7658;51.456;7.622;2024-02-16T12:53:19;12.25;;;4.80;;
15114;SDS011;7658;51.456;7.622;2024-02-16T12:55:46;9.50;;;5.00;;
15114;SDS011;7658;51.456;7.622;2024-02-16T12:58:13;15.48;;;5.20;;
15114;SDS011;7658;51.456;7.622;2024-02-16T13:00:39;7.50;;;4.30;;
15114;SDS011;7658;51.456;7.622;2024-02-16T13:03:04;7.07;;;4.85;;
15114;SDS011;7658;51.456;7.622;2024-02-16T13:05:30;6.57;;;4.22;;
15114;SDS011;7658;51.456;7.622;2024-02-16T13:07:58;7.82;;;4.70;;
15114;SDS011;7658;51.456;7.622;2024-02-16T13:10:24;7.32;;;4.45;;
15114;SDS011;7658;51.456;7.622;2024-02-16T13:12:49;7.85;;;4.65;;
15114;SDS011;7658;51.456;7.622;2024-02-16T13:15:15;11.38;;;5.65;;
15114;SDS011;7658;51.456;7.622;2024-02-16T13:17:41;6.03;;;4.75;;
15114;SDS011;7658;51.456;7.622;2024-02-16T13:20:07;9.50;;;5.60;;
15114;SDS011;7658;51.456;7.622;2024-02-16T13:22:37;8.48;;;4.93;;
15114;SDS011;7658;51.456;7.622;2024-02-16T13:25:04;8.30;;;5.43;;
15114;SDS011;7658;51.456;7.622;2024-02-16T13:27:31;6.80;;;5.10;;
15114;SDS011;7658;51.456;7.622;2024-02-16T13:29:58;11.27;;;5.82;;
15114;SDS011;7658;51.456;7.622;2024-02-16T13:32:23;12.18;;;7.60;;
15114;SDS011;7658;51.456;7.622;2024-02-16T13:34:50;9.35;;;6.07;;
15114;SDS011;7658;51.456;7.622;2024-02-16T13:37:16;10.80;;;5.75;;
15114;SDS011;7658;51.456;7.622;2024-02-16T13:39:41;11.48;;;6.20;;
15114;SDS011;7658;51.456;7.622;2024-02-16T13:42:07;10.65;;;5.75;;
15114;SDS011;7658;51.456;7.622;2024-02-16T13:44:33;9.43;;;5.82;;
15114;SDS011;7658;51.456;7.622;2024-02-16T13:47:00;10.75;;;6.45;;
15114;SDS011;7658;51.456;7.622;2024-02-16T13:49:25;9.80;;;6.18;;
15114;SDS011;7658;51.456;7.622;2024-02-16T13:51:51;12.45;;;6.63;;
15114;SDS011;7658;51.456;7.622;2024-02-16T13:54:17;9.52;;;6.43;;
15114;SDS011;7658;51.456;7.622;2024-02-16T13:56:43;11.35;;;7.30;;
15114;SDS011;7658;51.456;7.622;2024-02-16T13:59:09;11.98;;;6.60;;
15114;SDS011;7658;51.456;7.622;2024-02-16T14:01:34;8.82;;;6.20;;
15114;SDS011;7658;51.456;7.622;2024-02-16T14:04:02;12.70;;;7.97;;
15114;SDS011;7658;51.456;7.622;2024-02-16T14:06:28;10.70;;;6.97;;
15114;SDS011;7658;51.456;7.622;2024-02-16T14:08:56;14.55;;;7.15;;
15114;SDS011;7658;51.456;7.622;2024-02-16T14:11:22;13.02;;;6.78;;
15114;SDS011;7658;51.456;7.622;2024-02-16T14:13:48;13.20;;;6.43;;
15114;SDS011;7658;51.456;7.622;2024-02-16T14:16:14;10.93;;;7.25;;
15114;SDS011;7658;51.456;7.622;2024-02-16T14:18:40;12.77;;;7.22;;
15114;SDS011;7658;51.456;7.622;2024-02-16T14:21:06;12.63;;;6.82;;
15114;SDS011;7658;51.456;7.622;2024-02-16T14:23:32;14.27;;;7.88;;
15114;SDS011;7658;51.456;7.622;2024-02-16T14:25:58;12.43;;;7.45;;
15114;SDS011;7658;51.456;7.622;2024-02-16T14:28:24;16.67;;;7.70;;
15114;SDS011;7658;51.456;7.622;2024-02-16T14:30:50;15.90;;;8.45;;
15114;SDS011;7658;51.456;7.622;2024-02-16T14:33:16;16.52;;;8.85;;
15114;SDS011;7658;51.456;7.622;2024-02-16T14:35:43;10.65;;;8.10;;
15114;SDS011;7658;51.456;7.622;2024-02-16T14:38:08;16.17;;;9.45;;
15114;SDS011;7658;51.456;7.622;2024-02-16T14:40:34;13.65;;;9.05;;
15114;SDS011;7658;51.456;7.622;2024-02-16T14:43:01;12.68;;;8.77;;
15114;SDS011;7658;51.456;7.622;2024-02-16T14:45:27;15.38;;;9.63;;
15114;SDS011;7658;51.456;7.622;2024-02-16T14:47:53;15.43;;;9.60;;
15114;SDS011;7658;51.456;7.622;2024-02-16T14:50:19;16.00;;;10.93;;
15114;SDS011;7658;51.456;7.622;2024-02-16T14:52:44;16.30;;;10.63;;
15114;SDS011;7658;51.456;7.622;2024-02-16T14:55:11;18.02;;;11.20;;
15114;SDS011;7658;51.456;7.622;2024-02-16T14:57:42;17.42;;;10.60;;
15114;SDS011;7658;51.456;7.622;2024-02-16T15:00:09;16.75;;;11.82;;
15114;SDS011;7658;51.456;7.622;2024-02-16T15:02:36;20.65;;;12.63;;
15114;SDS011;7658;51.456;7.622;2024-02-16T15:05:06;21.60;;;12.55;;